sensor_id;sensor_type;location;lat;lon;timestamp;pressure;altitude;pressure_sealevel;temperature;humidity
18396;BME280;76377;45.194;5.734;2024-02-28T00:00:11;98578.66;;;11.66;57.87
18396;BME280;76377;45.194;5.734;2024-02-28T00:02:39;98591.31;;;11.67;57.81
18396;BME280;76377;45.194;5.734;2024-02-28T00:05:08;98596.88;;;11.70;57.59
18396;BME280;76377;45.194;5.734;2024-02-28T00:07:35;98594.50;;;11.69;57.44
18396;BME280;76377;45.194;5.734;2024-02-28T00:10:03;98599.66;;;11.70;57.26
18396;BME280;76377;45.194;5.734;2024-02-28T00:12:30;98602.41;;;11.70;57.61
18396;BME280;76377;45.194;5.734;2024-02-28T00:14:57;98613.47;;;11.67;57.69
18396;BME280;76377;45.194;5.734;2024-02-28T00:17:24;98604.38;;;11.66;57.86
18396;BME280;76377;45.194;5.734;2024-02-28T00:19:51;98610.28;;;11.65;57.92
18396;BME280;76377;45.194;5.734;2024-02-28T00:22:20;98617.38;;;11.62;57.53
18396;BME280;76377;45.194;5.734;2024-02-28T00:24:47;98620.53;;;11.61;57.96
18396;BME280;76377;45.194;5.734;2024-02-28T00:27:14;98615.75;;;11.58;58.21
18396;BME280;76377;45.194;5.734;2024-02-28T00:29:41;98625.25;;;11.57;58.09
18396;BME280;76377;45.194;5.734;2024-02-28T00:32:08;98627.25;;;11.60;58.19
18396;BME280;76377;45.194;5.734;2024-02-28T00:34:35;98618.16;;;11.59;58.21
18396;BME280;76377;45.194;5.734;2024-02-28T00:37:02;98631.59;;;11.61;58.21
18396;BME280;76377;45.194;5.734;2024-02-28T00:39:31;98635.56;;;11.60;58.54
18396;BME280;76377;45.194;5.734;2024-02-28T00:41:58;98639.91;;;11.61;58.44
18396;BME280;76377;45.194;5.734;2024-02-28T00:44:25;98641.84;;;11.57;58.02
18396;BME280;76377;45.194;5.734;2024-02-28T00:46:52;98652.94;;;11.57;58.16
18396;BME280;76377;45.194;5.734;2024-02-28T00:49:19;98647.34;;;11.53;58.60
18396;BME280;76377;45.194;5.734;2024-02-28T00:51:46;98652.94;;;11.57;58.20
18396;BME280;76377;45.194;5.734;2024-02-28T00:54:14;98657.66;;;11.56;58.47
18396;BME280;76377;45.194;5.734;2024-02-28T00:56:42;98654.50;;;11.54;58.44
18396;BME280;76377;45.194;5.734;2024-02-28T00:59:09;98661.63;;;11.55;58.33
18396;BME280;76377;45.194;5.734;2024-02-28T01:01:38;98654.47;;;11.51;58.70
18396;BME280;76377;45.194;5.734;2024-02-28T01:04:05;98665.53;;;11.51;58.89
18396;BME280;76377;45.194;5.734;2024-02-28T01:06:33;98660.06;;;11.58;58.77
18396;BME280;76377;45.194;5.734;2024-02-28T01:09:00;98660.81;;;11.55;58.92
18396;BME280;76377;45.194;5.734;2024-02-28T01:11:27;98663.19;;;11.53;59.03
18396;BME280;76377;45.194;5.734;2024-02-28T01:13:56;98673.41;;;11.49;59.20
18396;BME280;76377;45.194;5.734;2024-02-28T01:16:23;98684.88;;;11.47;59.33
18396;BME280;76377;45.194;5.734;2024-02-28T01:18:51;98682.03;;;11.44;60.47
18396;BME280;76377;45.194;5.734;2024-02-28T01:21:18;98677.28;;;11.44;61.82
18396;BME280;76377;45.194;5.734;2024-02-28T01:23:45;98682.22;;;11.24;62.85
18396;BME280;76377;45.194;5.734;2024-02-28T01:26:12;98675.56;;;11.29;61.75
18396;BME280;76377;45.194;5.734;2024-02-28T01:28:39;98670.69;;;11.19;62.61
18396;BME280;76377;45.194;5.734;2024-02-28T01:31:08;98688.91;;;11.20;62.45
18396;BME280;76377;45.194;5.734;2024-02-28T01:33:34;98685.59;;;11.07;62.80
18396;BME280;76377;45.194;5.734;2024-02-28T01:36:02;98695.09;;;11.10;62.94
18396;BME280;76377;45.194;5.734;2024-02-28T01:38:31;98698.59;;;11.03;63.11
18396;BME280;76377;45.194;5.734;2024-02-28T01:40:58;98688.78;;;11.09;62.82
18396;BME280;76377;45.194;5.734;2024-02-28T01:43:25;98685.94;;;11.02;63.48
18396;BME280;76377;45.194;5.734;2024-02-28T01:45:52;98702.09;;;11.00;63.56
18396;BME280;76377;45.194;5.734;2024-02-28T01:48:20;98699.34;;;11.00;64.08
18396;BME280;76377;45.194;5.734;2024-02-28T01:50:48;98711.81;;;10.90;64.40
18396;BME280;76377;45.194;5.734;2024-02-28T01:53:15;98706.28;;;10.90;64.18
18396;BME280;76377;45.194;5.734;2024-02-28T01:55:42;98709.84;;;10.91;63.97
18396;BME280;76377;45.194;5.734;2024-02-28T01:58:10;98708.34;;;10.93;63.50
18396;BME280;76377;45.194;5.734;2024-02-28T02:00:37;98716.31;;;10.98;63.45
18396;BME280;76377;45.194;5.734;2024-02-28T02:03:05;98713.16;;;11.00;64.11
18396;BME280;76377;45.194;5.734;2024-02-28T02:05:33;98711.25;;;11.04;64.11
18396;BME280;76377;45.194;5.734;2024-02-28T02:08:01;98719.31;;;10.90;64.62
18396;BME280;76377;45.194;5.734;2024-02-28T02:10:28;98716.19;;;10.91;64.56
18396;BME280;76377;45.194;5.734;2024-02-28T02:12:55;98709.84;;;10.91;64.55
18396;BME280;76377;45.194;5.734;2024-02-28T02:15:30;98712.19;;;10.89;65.28
18396;BME280;76377;45.194;5.734;2024-02-28T02:17:57;98709.78;;;10.84;65.67
18396;BME280;76377;45.194;5.734;2024-02-28T02:20:25;98712.03;;;10.74;65.56
18396;BME280;76377;45.194;5.734;2024-02-28T02:22:54;98725.31;;;10.65;66.14
18396;BME280;76377;45.194;5.734;2024-02-28T02:25:21;98716.59;;;10.63;66.30
18396;BME280;76377;45.194;5.734;2024-02-28T02:27:48;98722.69;;;10.76;65.28
18396;BME280;76377;45.194;5.734;2024-02-28T02:30:15;98725.41;;;10.72;65.78
18396;BME280;76377;45.194;5.734;2024-02-28T02:32:42;98721.38;;;10.66;66.23
18396;BME280;76377;45.194;5.734;2024-02-28T02:35:09;98721.44;;;10.70;65.70
18396;BME280;76377;45.194;5.734;2024-02-28T02:37:36;98712.75;;;10.71;65.62
18396;BME280;76377;45.194;5.734;2024-02-28T02:40:06;98726.25;;;10.77;65.49
18396;BME280;76377;45.194;5.734;2024-02-28T02:42:35;98725.41;;;10.72;66.24
18396;BME280;76377;45.194;5.734;2024-02-28T02:45:02;98718.66;;;10.70;65.90
18396;BME280;76377;45.194;5.734;2024-02-28T02:47:30;98725.41;;;10.72;65.33
18396;BME280;76377;45.194;5.734;2024-02-28T02:49:57;98723.78;;;10.68;65.36
18396;BME280;76377;45.194;5.734;2024-02-28T02:52:24;98722.22;;;10.70;64.89
18396;BME280;76377;45.194;5.734;2024-02-28T02:54:51;98732.13;;;10.71;64.89
18396;BME280;76377;45.194;5.734;2024-02-28T02:57:20;98730.63;;;10.78;64.89
18396;BME280;76377;45.194;5.734;2024-02-28T02:59:47;98740.41;;;10.71;65.44
18396;BME280;76377;45.194;5.734;2024-02-28T03:02:14;98732.59;;;10.77;65.21
18396;BME280;76377;45.194;5.734;2024-02-28T03:04:41;98754.66;;;10.73;64.94
18396;BME280;76377;45.194;5.734;2024-02-28T03:07:08;98746.78;;;10.75;65.13
18396;BME280;76377;45.194;5.734;2024-02-28T03:09:35;98752.41;;;10.83;65.10
18396;BME280;76377;45.194;5.734;2024-02-28T03:12:03;98767.88;;;10.87;64.94
18396;BME280;76377;45.194;5.734;2024-02-28T03:14:31;98757.09;;;10.79;65.36
18396;BME280;76377;45.194;5.734;2024-02-28T03:16:58;98768.44;;;10.70;66.00
18396;BME280;76377;45.194;5.734;2024-02-28T03:19:25;98784.16;;;10.66;66.12
18396;BME280;76377;45.194;5.734;2024-02-28T03:21:53;98777.00;;;10.61;66.83
18396;BME280;76377;45.194;5.734;2024-02-28T03:24:20;98783.25;;;10.58;67.66
18396;BME280;76377;45.194;5.734;2024-02-28T03:26:47;98782.19;;;10.66;67.26
18396;BME280;76377;45.194;5.734;2024-02-28T03:29:14;98782.00;;;10.52;67.38
18396;BME280;76377;45.194;5.734;2024-02-28T03:31:42;98784.00;;;10.55;68.07
18396;BME280;76377;45.194;5.734;2024-02-28T03:34:09;98791.06;;;10.53;68.25
18396;BME280;76377;45.194;5.734;2024-02-28T03:36:36;98789.75;;;10.43;68.16
18396;BME280;76377;45.194;5.734;2024-02-28T03:39:03;98788.25;;;10.49;68.52
18396;BME280;76377;45.194;5.734;2024-02-28T03:41:29;98789.16;;;10.57;68.38
18396;BME280;76377;45.194;5.734;2024-02-28T03:43:56;98801.81;;;10.35;69.79
18396;BME280;76377;45.194;5.734;2024-02-28T03:46:23;98797.59;;;10.41;69.95
18396;BME280;76377;45.194;5.734;2024-02-28T03:48:52;98798.19;;;10.31;70.53
18396;BME280;76377;45.194;5.734;2024-02-28T03:51:19;98802.25;;;10.37;70.62
18396;BME280;76377;45.194;5.734;2024-02-28T03:53:46;98810.97;;;10.39;70.36
18396;BME280;76377;45.194;5.734;2024-02-28T03:56:20;98813.97;;;10.30;71.01
18396;BME280;76377;45.194;5.734;2024-02-28T03:58:48;98812.31;;;10.26;71.42
18396;BME280;76377;45.194;5.734;2024-02-28T04:01:15;98808.25;;;10.20;71.78
18396;BME280;76377;45.194;5.734;2024-02-28T04:03:42;98795.75;;;10.26;72.11
18396;BME280;76377;45.194;5.734;2024-02-28T04:06:10;98821.34;;;10.23;72.58
18396;BME280;76377;45.194;5.734;2024-02-28T04:08:37;98823.38;;;10.26;72.76
18396;BME280;76377;45.194;5.734;2024-02-28T04:11:04;98826.72;;;10.16;72.63
18396;BME280;76377;45.194;5.734;2024-02-28T04:13:31;98823.09;;;10.11;72.53
18396;BME280;76377;45.194;5.734;2024-02-28T04:15:58;98814.06;;;10.15;71.95
18396;BME280;76377;45.194;5.734;2024-02-28T04:18:26;98816.97;;;10.22;72.02
18396;BME280;76377;45.194;5.734;2024-02-28T04:20:53;98817.03;;;10.25;71.86
18396;BME280;76377;45.194;5.734;2024-02-28T04:23:21;98820.59;;;10.26;71.65
18396;BME280;76377;45.194;5.734;2024-02-28T04:25:49;98824.81;;;10.20;70.78
18396;BME280;76377;45.194;5.734;2024-02-28T04:28:16;98827.75;;;10.07;71.94
18396;BME280;76377;45.194;5.734;2024-02-28T04:30:43;98821.63;;;10.18;71.92
18396;BME280;76377;45.194;5.734;2024-02-28T04:33:10;98812.91;;;10.16;72.22
18396;BME280;76377;45.194;5.734;2024-02-28T04:35:37;98827.75;;;10.07;72.07
18396;BME280;76377;45.194;5.734;2024-02-28T04:38:06;98821.50;;;10.10;71.83
18396;BME280;76377;45.194;5.734;2024-02-28T04:40:34;98810.56;;;10.18;71.38
18396;BME280;76377;45.194;5.734;2024-02-28T04:43:02;98823.09;;;10.11;71.71
18396;BME280;76377;45.194;5.734;2024-02-28T04:45:31;98834.88;;;10.08;71.43
18396;BME280;76377;45.194;5.734;2024-02-28T04:47:58;98828.41;;;10.20;70.50
18396;BME280;76377;45.194;5.734;2024-02-28T04:50:25;98827.09;;;10.14;71.11
18396;BME280;76377;45.194;5.734;2024-02-28T04:52:52;98827.88;;;10.15;71.25
18396;BME280;76377;45.194;5.734;2024-02-28T04:55:21;98837.28;;;10.10;71.64
18396;BME280;76377;45.194;5.734;2024-02-28T04:57:49;98820.75;;;10.13;71.49
18396;BME280;76377;45.194;5.734;2024-02-28T05:00:17;98829.22;;;10.01;71.87
18396;BME280;76377;45.194;5.734;2024-02-28T05:02:44;98847.47;;;10.06;72.14
18396;BME280;76377;45.194;5.734;2024-02-28T05:05:11;98855.19;;;9.97;72.31
18396;BME280;76377;45.194;5.734;2024-02-28T05:07:38;98858.44;;;10.02;72.47
18396;BME280;76377;45.194;5.734;2024-02-28T05:10:06;98866.44;;;10.07;71.74
18396;BME280;76377;45.194;5.734;2024-02-28T05:12:34;98868.19;;;9.96;71.63
18396;BME280;76377;45.194;5.734;2024-02-28T05:15:02;98877.19;;;9.93;72.16
18396;BME280;76377;45.194;5.734;2024-02-28T05:17:32;98891.44;;;9.95;71.63
18396;BME280;76377;45.194;5.734;2024-02-28T05:19:59;98886.78;;;9.99;71.36
18396;BME280;76377;45.194;5.734;2024-02-28T05:22:26;98884.09;;;10.03;71.88
18396;BME280;76377;45.194;5.734;2024-02-28T05:24:53;98888.31;;;9.97;72.36
18396;BME280;76377;45.194;5.734;2024-02-28T05:27:20;98894.41;;;9.87;72.47
18396;BME280;76377;45.194;5.734;2024-02-28T05:29:47;98903.22;;;9.92;72.22
18396;BME280;76377;45.194;5.734;2024-02-28T05:32:16;98894.41;;;9.87;72.39
18396;BME280;76377;45.194;5.734;2024-02-28T05:34:45;98902.19;;;9.81;72.70
18396;BME280;76377;45.194;5.734;2024-02-28T05:37:12;98915.19;;;9.80;72.63
18396;BME280;76377;45.194;5.734;2024-02-28T05:39:39;98897.53;;;9.85;72.57
18396;BME280;76377;45.194;5.734;2024-02-28T05:42:06;98902.25;;;9.85;72.67
18396;BME280;76377;45.194;5.734;2024-02-28T05:44:34;98903.34;;;9.80;72.99
18396;BME280;76377;45.194;5.734;2024-02-28T05:47:01;98904.28;;;9.88;72.62
18396;BME280;76377;45.194;5.734;2024-02-28T05:49:30;98901.22;;;9.73;72.84
18396;BME280;76377;45.194;5.734;2024-02-28T05:51:57;98894.47;;;9.71;73.06
18396;BME280;76377;45.194;5.734;2024-02-28T05:54:24;98896.44;;;9.70;73.47
18396;BME280;76377;45.194;5.734;2024-02-28T05:56:51;98901.16;;;9.70;73.66
18396;BME280;76377;45.194;5.734;2024-02-28T05:59:18;98897.88;;;9.64;73.88
18396;BME280;76377;45.194;5.734;2024-02-28T06:01:45;98924.63;;;9.60;74.04
18396;BME280;76377;45.194;5.734;2024-02-28T06:04:12;98911.47;;;9.73;73.08
18396;BME280;76377;45.194;5.734;2024-02-28T06:06:41;98911.69;;;9.84;72.96
18396;BME280;76377;45.194;5.734;2024-02-28T06:09:08;98911.41;;;9.69;73.09
18396;BME280;76377;45.194;5.734;2024-02-28T06:11:36;98925.28;;;9.73;72.98
18396;BME280;76377;45.194;5.734;2024-02-28T06:14:03;98931.88;;;9.68;73.68
18396;BME280;76377;45.194;5.734;2024-02-28T06:16:30;98949.97;;;9.66;73.25
18396;BME280;76377;45.194;5.734;2024-02-28T06:18:57;98946.84;;;9.67;73.34
18396;BME280;76377;45.194;5.734;2024-02-28T06:21:25;98945.97;;;9.63;73.56
18396;BME280;76377;45.194;5.734;2024-02-28T06:23:53;98950.31;;;9.64;73.20
18396;BME280;76377;45.194;5.734;2024-02-28T06:26:21;98958.69;;;9.68;73.67
18396;BME280;76377;45.194;5.734;2024-02-28T06:28:48;98982.22;;;9.62;73.48
18396;BME280;76377;45.194;5.734;2024-02-28T06:31:16;98976.09;;;9.53;74.17
18396;BME280;76377;45.194;5.734;2024-02-28T06:33:44;98973.88;;;9.42;74.94
18396;BME280;76377;45.194;5.734;2024-02-28T06:36:11;98963.56;;;9.39;75.44
18396;BME280;76377;45.194;5.734;2024-02-28T06:38:38;98987.31;;;9.44;75.09
18396;BME280;76377;45.194;5.734;2024-02-28T06:41:06;98970.22;;;9.54;74.89
18396;BME280;76377;45.194;5.734;2024-02-28T06:43:34;98975.66;;;9.51;74.60
18396;BME280;76377;45.194;5.734;2024-02-28T06:46:01;98981.00;;;9.43;75.02
18396;BME280;76377;45.194;5.734;2024-02-28T06:48:28;98990.38;;;9.39;75.45
18396;BME280;76377;45.194;5.734;2024-02-28T06:50:56;98992.56;;;9.33;75.49
18396;BME280;76377;45.194;5.734;2024-02-28T06:53:23;98987.59;;;9.23;76.24
18396;BME280;76377;45.194;5.734;2024-02-28T06:55:50;98991.97;;;9.24;76.44
18396;BME280;76377;45.194;5.734;2024-02-28T06:58:18;99009.03;;;9.30;75.98
18396;BME280;76377;45.194;5.734;2024-02-28T07:00:46;99003.25;;;9.19;75.85
18396;BME280;76377;45.194;5.734;2024-02-28T07:03:13;99002.09;;;9.20;76.51
18396;BME280;76377;45.194;5.734;2024-02-28T07:05:41;99016.69;;;9.21;76.34
18396;BME280;76377;45.194;5.734;2024-02-28T07:08:08;99010.81;;;9.22;76.62
18396;BME280;76377;45.194;5.734;2024-02-28T07:10:36;99001.91;;;9.29;76.13
18396;BME280;76377;45.194;5.734;2024-02-28T07:13:08;98999.25;;;9.16;76.70
18396;BME280;76377;45.194;5.734;2024-02-28T07:15:37;99007.25;;;9.22;76.35
18396;BME280;76377;45.194;5.734;2024-02-28T07:18:04;99015.19;;;9.23;76.34
18396;BME280;76377;45.194;5.734;2024-02-28T07:20:31;99015.34;;;9.30;75.66
18396;BME280;76377;45.194;5.734;2024-02-28T07:23:01;99031.47;;;9.28;76.16
18396;BME280;76377;45.194;5.734;2024-02-28T07:25:28;99025.50;;;9.26;75.99
18396;BME280;76377;45.194;5.734;2024-02-28T07:27:58;99019.97;;;9.26;76.30
18396;BME280;76377;45.194;5.734;2024-02-28T07:30:25;99028.06;;;9.35;76.52
18396;BME280;76377;45.194;5.734;2024-02-28T07:32:54;99031.47;;;9.44;75.56
18396;BME280;76377;45.194;5.734;2024-02-28T07:35:22;99037.09;;;9.47;75.13
18396;BME280;76377;45.194;5.734;2024-02-28T07:37:49;99044.91;;;9.45;75.43
18396;BME280;76377;45.194;5.734;2024-02-28T07:40:17;99036.19;;;9.28;75.74
18396;BME280;76377;45.194;5.734;2024-02-28T07:42:44;99037.41;;;9.30;76.15
18396;BME280;76377;45.194;5.734;2024-02-28T07:45:11;99030.38;;;9.33;76.00
18396;BME280;76377;45.194;5.734;2024-02-28T07:47:38;99035.81;;;9.29;75.55
18396;BME280;76377;45.194;5.734;2024-02-28T07:50:07;99033.34;;;9.24;75.71
18396;BME280;76377;45.194;5.734;2024-02-28T07:52:35;99035.03;;;9.29;75.34
18396;BME280;76377;45.194;5.734;2024-02-28T07:55:03;99047.56;;;9.26;75.51
18396;BME280;76377;45.194;5.734;2024-02-28T07:57:31;99042.22;;;9.33;75.16
18396;BME280;76377;45.194;5.734;2024-02-28T07:59:58;99048.19;;;9.35;75.21
18396;BME280;76377;45.194;5.734;2024-02-28T08:02:26;99056.38;;;9.32;75.06
18396;BME280;76377;45.194;5.734;2024-02-28T08:04:53;99050.78;;;9.28;75.74
18396;BME280;76377;45.194;5.734;2024-02-28T08:07:22;99058.59;;;9.26;75.72
18396;BME280;76377;45.194;5.734;2024-02-28T08:09:49;99066.69;;;9.35;75.16
18396;BME280;76377;45.194;5.734;2024-02-28T08:12:16;99057.19;;;9.32;75.28
18396;BME280;76377;45.194;5.734;2024-02-28T08:14:43;99074.81;;;9.28;75.50
18396;BME280;76377;45.194;5.734;2024-02-28T08:17:11;99075.91;;;9.39;74.80
18396;BME280;76377;45.194;5.734;2024-02-28T08:19:41;99082.56;;;9.38;74.41
18396;BME280;76377;45.194;5.734;2024-02-28T08:22:08;99089.13;;;9.33;74.94
18396;BME280;76377;45.194;5.734;2024-02-28T08:24:37;99083.25;;;9.35;74.81
18396;BME280;76377;45.194;5.734;2024-02-28T08:27:05;99077.66;;;9.31;74.86
18396;BME280;76377;45.194;5.734;2024-02-28T08:29:32;99086.38;;;9.33;74.70
18396;BME280;76377;45.194;5.734;2024-02-28T08:32:01;99084.84;;;9.36;74.85
18396;BME280;76377;45.194;5.734;2024-02-28T08:34:28;99099.88;;;9.07;76.59
18396;BME280;76377;45.194;5.734;2024-02-28T08:36:55;99093.31;;;9.27;75.92
18396;BME280;76377;45.194;5.734;2024-02-28T08:39:22;99104.16;;;9.20;76.18
18396;BME280;76377;45.194;5.734;2024-02-28T08:41:51;99100.41;;;9.12;76.21
18396;BME280;76377;45.194;5.734;2024-02-28T08:44:18;99109.22;;;9.02;77.14
18396;BME280;76377;45.194;5.734;2024-02-28T08:46:46;99101.56;;;9.11;76.03
18396;BME280;76377;45.194;5.734;2024-02-28T08:49:13;99113.50;;;9.15;75.61
18396;BME280;76377;45.194;5.734;2024-02-28T08:51:41;99103.63;;;9.14;75.65
18396;BME280;76377;45.194;5.734;2024-02-28T08:54:08;99109.69;;;9.20;75.28
18396;BME280;76377;45.194;5.734;2024-02-28T08:56:35;99114.56;;;9.11;76.44
18396;BME280;76377;45.194;5.734;2024-02-28T08:59:03;99114.09;;;9.09;76.34
18396;BME280;76377;45.194;5.734;2024-02-28T09:01:30;99128.53;;;9.18;75.83
18396;BME280;76377;45.194;5.734;2024-02-28T09:03:59;99132.06;;;9.03;76.52
18396;BME280;76377;45.194;5.734;2024-02-28T09:06:26;99123.53;;;9.08;76.16
18396;BME280;76377;45.194;5.734;2024-02-28T09:08:53;99126.81;;;8.98;76.59
18396;BME280;76377;45.194;5.734;2024-02-28T09:11:21;99140.16;;;8.96;77.22
18396;BME280;76377;45.194;5.734;2024-02-28T09:13:50;99145.69;;;8.83;77.80
18396;BME280;76377;45.194;5.734;2024-02-28T09:16:19;99133.47;;;8.97;77.40
18396;BME280;76377;45.194;5.734;2024-02-28T09:18:46;99131.28;;;9.02;76.89
18396;BME280;76377;45.194;5.734;2024-02-28T09:21:14;99129.84;;;9.08;76.31
18396;BME280;76377;45.194;5.734;2024-02-28T09:23:41;99139.81;;;9.13;76.17
18396;BME280;76377;45.194;5.734;2024-02-28T09:26:08;99147.22;;;9.09;76.47
18396;BME280;76377;45.194;5.734;2024-02-28T09:28:36;99148.44;;;9.11;76.42
18396;BME280;76377;45.194;5.734;2024-02-28T09:31:03;99140.28;;;9.15;75.92
18396;BME280;76377;45.194;5.734;2024-02-28T09:33:32;99141.78;;;9.12;75.66
18396;BME280;76377;45.194;5.734;2024-02-28T09:36:01;99146.03;;;9.10;76.76
18396;BME280;76377;45.194;5.734;2024-02-28T09:38:28;99154.78;;;9.28;75.20
18396;BME280;76377;45.194;5.734;2024-02-28T09:40:58;99158.63;;;9.23;75.11
18396;BME280;76377;45.194;5.734;2024-02-28T09:43:29;99152.13;;;9.15;75.24
18396;BME280;76377;45.194;5.734;2024-02-28T09:46:00;99170.44;;;9.24;75.83
18396;BME280;76377;45.194;5.734;2024-02-28T09:48:30;99146.69;;;9.19;75.24
18396;BME280;76377;45.194;5.734;2024-02-28T09:50:59;99149.41;;;9.03;76.56
18396;BME280;76377;45.194;5.734;2024-02-28T09:53:27;99149.59;;;9.10;76.21
18396;BME280;76377;45.194;5.734;2024-02-28T09:55:54;99165.09;;;9.15;75.81
18396;BME280;76377;45.194;5.734;2024-02-28T09:58:21;99166.69;;;9.16;76.30
18396;BME280;76377;45.194;5.734;2024-02-28T10:00:50;99160.75;;;9.14;76.11
18396;BME280;76377;45.194;5.734;2024-02-28T10:03:18;99171.13;;;9.05;77.00
18396;BME280;76377;45.194;5.734;2024-02-28T10:05:46;99171.66;;;9.10;76.09
18396;BME280;76377;45.194;5.734;2024-02-28T10:08:15;99180.41;;;9.12;76.09
18396;BME280;76377;45.194;5.734;2024-02-28T10:10:45;99178.59;;;9.04;76.64
18396;BME280;76377;45.194;5.734;2024-02-28T10:13:13;99177.53;;;9.09;76.29
18396;BME280;76377;45.194;5.734;2024-02-28T10:15:40;99170.03;;;8.94;76.54
18396;BME280;76377;45.194;5.734;2024-02-28T10:18:07;99181.25;;;9.01;76.86
18396;BME280;76377;45.194;5.734;2024-02-28T10:20:34;99182.50;;;9.03;76.79
18396;BME280;76377;45.194;5.734;2024-02-28T10:23:04;99181.19;;;9.13;76.38
18396;BME280;76377;45.194;5.734;2024-02-28T10:25:32;99179.41;;;9.05;76.34
18396;BME280;76377;45.194;5.734;2024-02-28T10:28:00;99193.44;;;9.00;76.29
18396;BME280;76377;45.194;5.734;2024-02-28T10:30:27;99185.63;;;9.02;76.17
18396;BME280;76377;45.194;5.734;2024-02-28T10:32:55;99193.47;;;9.15;76.07
18396;BME280;76377;45.194;5.734;2024-02-28T10:35:22;99183.50;;;9.11;75.89
18396;BME280;76377;45.194;5.734;2024-02-28T10:37:51;99203.75;;;9.03;75.73
18396;BME280;76377;45.194;5.734;2024-02-28T10:40:19;99201.97;;;8.95;76.79
18396;BME280;76377;45.194;5.734;2024-02-28T10:42:48;99212.78;;;8.88;77.18
18396;BME280;76377;45.194;5.734;2024-02-28T10:45:17;99192.63;;;8.99;76.21
18396;BME280;76377;45.194;5.734;2024-02-28T10:47:45;99202.16;;;9.02;76.21
18396;BME280;76377;45.194;5.734;2024-02-28T10:50:13;99195.94;;;9.05;76.63
18396;BME280;76377;45.194;5.734;2024-02-28T10:52:44;99192.63;;;8.99;76.12
18396;BME280;76377;45.194;5.734;2024-02-28T10:55:13;99184.00;;;9.01;76.48
18396;BME280;76377;45.194;5.734;2024-02-28T10:57:44;99214.59;;;8.96;76.48
18396;BME280;76377;45.194;5.734;2024-02-28T11:00:17;99220.91;;;8.96;77.26
18396;BME280;76377;45.194;5.734;2024-02-28T11:02:45;99215.75;;;8.95;76.73
18396;BME280;76377;45.194;5.734;2024-02-28T11:05:13;99203.50;;;9.08;76.15
18396;BME280;76377;45.194;5.734;2024-02-28T11:07:41;99201.50;;;8.93;77.33
18396;BME280;76377;45.194;5.734;2024-02-28T11:10:09;99206.97;;;9.05;76.33
18396;BME280;76377;45.194;5.734;2024-02-28T11:12:37;99222.63;;;9.01;77.14
18396;BME280;76377;45.194;5.734;2024-02-28T11:15:05;99224.22;;;9.02;77.51
18396;BME280;76377;45.194;5.734;2024-02-28T11:17:44;99229.84;;;9.05;76.73
18396;BME280;76377;45.194;5.734;2024-02-28T11:20:12;99213.91;;;8.99;77.29
18396;BME280;76377;45.194;5.734;2024-02-28T11:22:39;99226.31;;;8.93;78.28
18396;BME280;76377;45.194;5.734;2024-02-28T11:25:07;99227.22;;;8.97;77.68
18396;BME280;76377;45.194;5.734;2024-02-28T11:27:45;99214.59;;;8.96;77.91
18396;BME280;76377;45.194;5.734;2024-02-28T11:30:13;99223.13;;;8.91;78.38
18396;BME280;76377;45.194;5.734;2024-02-28T11:32:40;99215.75;;;8.82;78.35
18396;BME280;76377;45.194;5.734;2024-02-28T11:35:10;99227.72;;;8.74;79.07
18396;BME280;76377;45.194;5.734;2024-02-28T11:37:38;99221.97;;;8.92;78.82
18396;BME280;76377;45.194;5.734;2024-02-28T11:40:07;99234.16;;;8.78;79.40
18396;BME280;76377;45.194;5.734;2024-02-28T11:42:35;99232.28;;;8.95;78.38
18396;BME280;76377;45.194;5.734;2024-02-28T11:45:03;99233.53;;;8.97;78.08
18396;BME280;76377;45.194;5.734;2024-02-28T11:47:31;99238.25;;;8.97;77.82
18396;BME280;76377;45.194;5.734;2024-02-28T11:49:59;99226.13;;;9.13;77.48
18396;BME280;76377;45.194;5.734;2024-02-28T11:52:30;99233.16;;;9.11;77.01
18396;BME280;76377;45.194;5.734;2024-02-28T11:54:57;99226.13;;;9.13;77.32
18396;BME280;76377;45.194;5.734;2024-02-28T11:57:25;99235.84;;;9.23;76.64
18396;BME280;76377;45.194;5.734;2024-02-28T11:59:54;99239.47;;;9.11;76.93
18396;BME280;76377;45.194;5.734;2024-02-28T12:02:22;99242.28;;;8.99;77.30
18396;BME280;76377;45.194;5.734;2024-02-28T12:04:51;99237.81;;;8.82;78.12
18396;BME280;76377;45.194;5.734;2024-02-28T12:07:20;99242.28;;;8.99;78.43
18396;BME280;76377;45.194;5.734;2024-02-28T12:09:48;99244.00;;;8.92;78.25
18396;BME280;76377;45.194;5.734;2024-02-28T12:12:16;99253.75;;;9.01;78.39
18396;BME280;76377;45.194;5.734;2024-02-28T12:14:44;99232.59;;;9.05;77.93
18396;BME280;76377;45.194;5.734;2024-02-28T12:17:14;99250.00;;;8.94;78.49
18396;BME280;76377;45.194;5.734;2024-02-28T12:19:41;99243.78;;;8.97;78.56
18396;BME280;76377;45.194;5.734;2024-02-28T12:22:08;99237.16;;;8.85;79.35
18396;BME280;76377;45.194;5.734;2024-02-28T12:24:36;99252.41;;;8.83;78.92
18396;BME280;76377;45.194;5.734;2024-02-28T12:27:05;99261.72;;;8.91;78.87
18396;BME280;76377;45.194;5.734;2024-02-28T12:29:32;99251.69;;;8.98;78.31
18396;BME280;76377;45.194;5.734;2024-02-28T12:31:59;99252.06;;;8.84;78.71
18396;BME280;76377;45.194;5.734;2024-02-28T12:34:26;99256.53;;;8.77;79.46
18396;BME280;76377;45.194;5.734;2024-02-28T12:36:53;99264.81;;;8.77;79.23
18396;BME280;76377;45.194;5.734;2024-02-28T12:39:20;99269.28;;;8.81;79.68
18396;BME280;76377;45.194;5.734;2024-02-28T12:41:48;99251.59;;;8.95;78.99
18396;BME280;76377;45.194;5.734;2024-02-28T12:44:16;99260.56;;;8.92;78.63
18396;BME280;76377;45.194;5.734;2024-02-28T12:46:43;99259.41;;;8.93;78.33
18396;BME280;76377;45.194;5.734;2024-02-28T12:49:10;99259.63;;;9.00;78.54
18396;BME280;76377;45.194;5.734;2024-02-28T12:51:39;99253.41;;;9.03;77.85
18396;BME280;76377;45.194;5.734;2024-02-28T12:54:07;99267.44;;;8.98;78.15
18396;BME280;76377;45.194;5.734;2024-02-28T12:56:35;99276.06;;;8.96;78.33
18396;BME280;76377;45.194;5.734;2024-02-28T12:59:02;99274.34;;;8.92;78.85
18396;BME280;76377;45.194;5.734;2024-02-28T13:01:30;99272.75;;;8.91;78.87
18396;BME280;76377;45.194;5.734;2024-02-28T13:03:57;99275.25;;;8.96;79.14
18396;BME280;76377;45.194;5.734;2024-02-28T13:06:24;99275.59;;;8.82;79.68
18396;BME280;76377;45.194;5.734;2024-02-28T13:08:53;99273.09;;;8.77;80.09